Time;durP1;ratioP1;P1;durP2;ratioP2;P2;SDS_P1;SDS_P2;PMS_P1;PMS_P2;Temp;Humidity;BMP_temperature;BMP_pressure;BME280_temperature;BME280_humidity;BME280_pressure;Samples;Min_cycle;Max_cycle;Signal;HPM_P1;HPM_P2
2021/06/25 00:00:38;;;;;;;53.15;16.65;;;;;;;17.89;85.42;94670.69;1617584;87;21128;-58
2021/06/25 00:03:05;;;;;;;46.00;14.45;;;;;;;17.86;85.53;94678.64;1619394;87;21051;-58
2021/06/25 00:05:33;;;;;;;46.20;14.65;;;;;;;17.83;85.70;94674.07;1619337;87;21445;-57
2021/06/25 00:08:00;;;;;;;42.98;15.08;;;;;;;17.84;85.77;94675.59;1614125;88;21135;-56
2021/06/25 00:10:28;;;;;;;43.05;14.47;;;;;;;17.87;85.73;94680.17;1616426;87;21090;-56
2021/06/25 00:12:55;;;;;;;45.70;14.87;;;;;;;17.86;85.51;94686.34;1615973;87;21570;-57
2021/06/25 00:15:24;;;;;;;41.15;13.58;;;;;;;17.83;85.50;94690.77;1621134;88;20980;-58
2021/06/25 00:17:50;;;;;;;35.50;12.55;;;;;;;17.82;85.65;94689.25;1614588;87;20983;-58
2021/06/25 00:20:18;;;;;;;30.43;11.75;;;;;;;17.82;85.64;94688.60;1618584;87;21206;-57
2021/06/25 00:22:45;;;;;;;37.88;12.78;;;;;;;17.84;85.75;94685.34;1619830;87;21083;-58
2021/06/25 00:25:12;;;;;;;37.60;14.00;;;;;;;17.83;85.88;94681.03;1624980;87;20985;-58
2021/06/25 00:27:39;;;;;;;34.80;13.20;;;;;;;17.85;85.94;94686.86;1601098;88;20977;-59
2021/06/25 00:30:08;;;;;;;44.80;14.98;;;;;;;17.83;85.73;94687.34;1620029;87;21586;-56
2021/06/25 00:32:35;;;;;;;33.90;12.43;;;;;;;17.81;85.71;94680.77;1613790;87;21168;-58
2021/06/25 00:35:01;;;;;;;31.02;12.70;;;;;;;17.79;85.92;94683.28;1624422;87;20987;-56
2021/06/25 00:37:30;;;;;;;37.58;14.53;;;;;;;17.76;85.99;94685.03;1618101;87;21100;-56
2021/06/25 00:39:57;;;;;;;32.28;12.25;;;;;;;17.74;86.18;94678.42;1594068;88;21093;-57
2021/06/25 00:42:23;;;;;;;25.20;10.28;;;;;;;17.77;86.08;94674.64;1619756;87;21655;-56
2021/06/25 00:44:50;;;;;;;24.85;11.80;;;;;;;17.73;85.77;94672.72;1617067;87;21315;-57
2021/06/25 00:47:16;;;;;;;33.85;12.30;;;;;;;17.71;85.70;94673.84;1619661;87;20983;-56
2021/06/25 00:49:44;;;;;;;33.78;10.30;;;;;;;17.71;85.53;94679.41;1586699;88;21138;-58
2021/06/25 00:52:17;;;;;;;30.02;11.03;;;;;;;17.70;85.44;94678.66;1627181;87;21121;-56
2021/06/25 00:54:47;;;;;;;30.20;10.53;;;;;;;17.66;85.32;94680.14;1620152;87;21032;-56
2021/06/25 00:57:14;;;;;;;28.30;12.82;;;;;;;17.62;85.40;94662.92;1589229;88;21240;-57
2021/06/25 00:59:41;;;;;;;39.05;12.55;;;;;;;17.59;85.66;94663.27;1595217;87;20998;-56
2021/06/25 01:02:09;;;;;;;45.43;12.68;;;;;;;17.55;85.91;94666.13;1616331;87;21090;-58
2021/06/25 01:04:36;;;;;;;45.12;13.78;;;;;;;17.49;86.17;94670.89;1621891;87;21146;-57
2021/06/25 01:07:06;;;;;;;44.63;15.45;;;;;;;17.47;86.27;94673.41;1619677;88;21074;-57
2021/06/25 01:09:34;;;;;;;29.30;12.43;;;;;;;17.43;86.41;94664.53;1615277;87;21808;-58
2021/06/25 01:12:06;;;;;;;37.35;11.45;;;;;;;17.38;86.65;94659.05;1606337;87;21097;-57
2021/06/25 01:14:33;;;;;;;34.13;13.23;;;;;;;17.37;86.81;94660.92;1624759;87;21658;-57
2021/06/25 01:17:02;;;;;;;23.90;10.03;;;;;;;17.40;86.77;94658.54;1618287;87;21080;-57
2021/06/25 01:19:28;;;;;;;28.95;11.73;;;;;;;17.39;86.40;94655.63;1621853;86;21026;-57
2021/06/25 01:21:55;;;;;;;30.65;10.68;;;;;;;17.35;86.38;94655.87;1618835;87;21156;-58
2021/06/25 01:24:23;;;;;;;29.55;11.12;;;;;;;17.35;86.44;94650.30;1623171;87;20950;-57
2021/06/25 01:26:50;;;;;;;20.90;9.75;;;;;;;17.35;86.21;94650.92;1626456;87;20994;-57
2021/06/25 01:29:19;;;;;;;27.27;9.55;;;;;;;17.30;86.17;94652.36;1618975;87;21110;-58
2021/06/25 01:31:46;;;;;;;24.57;9.45;;;;;;;17.29;86.28;94650.09;1611691;87;21120;-57
2021/06/25 01:34:13;;;;;;;27.48;11.05;;;;;;;17.26;86.45;94646.91;1628729;87;21155;-57
2021/06/25 01:36:40;;;;;;;27.32;10.72;;;;;;;17.26;86.75;94642.09;1626247;87;21100;-57
2021/06/25 01:39:08;;;;;;;30.15;11.33;;;;;;;17.30;86.78;94644.66;1601777;87;21102;-57
2021/06/25 01:41:39;;;;;;;19.42;8.58;;;;;;;17.31;86.79;94639.23;1632835;87;21047;-56
2021/06/25 01:44:06;;;;;;;17.60;7.50;;;;;;;17.33;86.51;94638.11;1628372;87;21108;-57
2021/06/25 01:46:33;;;;;;;24.90;8.43;;;;;;;17.33;86.24;94639.50;1624970;87;21811;-57
2021/06/25 01:49:01;;;;;;;25.02;9.08;;;;;;;17.33;86.14;94640.89;1625758;87;20978;-57
2021/06/25 01:51:29;;;;;;;26.68;9.73;;;;;;;17.33;85.94;94645.84;1627016;87;21042;-56
2021/06/25 01:53:56;;;;;;;41.50;10.75;;;;;;;17.31;85.72;94642.76;1618695;87;21069;-58
2021/06/25 01:56:24;;;;;;;16.35;8.65;;;;;;;17.27;85.68;94658.16;1627400;87;21048;-59
2021/06/25 01:58:51;;;;;;;31.33;9.05;;;;;;;17.22;85.89;94651.29;1632099;86;23155;-57
2021/06/25 02:01:18;;;;;;;29.37;9.00;;;;;;;17.13;86.17;94658.39;1623402;87;21562;-56
2021/06/25 02:03:50;;;;;;;25.05;10.18;;;;;;;17.07;86.46;94650.64;1631677;87;21074;-57
2021/06/25 02:06:17;;;;;;;29.18;10.72;;;;;;;17.03;86.61;94647.94;1621193;87;21029;-56
2021/06/25 02:08:44;;;;;;;18.70;9.18;;;;;;;16.98;86.85;94654.20;1628199;87;21113;-58
2021/06/25 02:11:11;;;;;;;31.12;10.43;;;;;;;16.94;86.91;94655.06;1632545;87;21715;-55
2021/06/25 02:13:38;;;;;;;30.30;10.95;;;;;;;16.89;87.08;94651.61;1629734;87;21514;-57
2021/06/25 02:16:05;;;;;;;28.83;10.32;;;;;;;16.86;87.44;94638.67;1630417;87;21100;-57
2021/06/25 02:18:32;;;;;;;35.58;11.43;;;;;;;16.88;87.50;94634.80;1627349;87;21402;-58
2021/06/25 02:20:58;;;;;;;33.90;11.38;;;;;;;16.89;87.55;94639.10;1637508;87;21004;-57
2021/06/25 02:23:25;;;;;;;15.75;8.80;;;;;;;16.91;87.56;94640.76;1624199;86;21155;-58
2021/06/25 02:25:52;;;;;;;18.07;7.22;;;;;;;16.95;87.43;94637.13;1620825;87;21440;-58
2021/06/25 02:28:20;;;;;;;20.72;9.70;;;;;;;16.97;86.93;94634.00;1631085;87;21482;-58
2021/06/25 02:30:48;;;;;;;24.77;10.10;;;;;;;16.94;86.73;94630.05;1628340;87;21041;-58
2021/06/25 02:33:16;;;;;;;52.93;12.23;;;;;;;16.93;86.69;94622.96;1617218;87;21089;-56
2021/06/25 02:35:43;;;;;;;50.78;12.63;;;;;;;16.91;86.81;94626.87;1623073;87;21171;-57
2021/06/25 02:38:09;;;;;;;30.88;10.80;;;;;;;16.87;86.90;94623.55;1626172;87;20995;-57
2021/06/25 02:40:36;;;;;;;34.08;11.30;;;;;;;16.83;86.99;94626.53;1594260;88;21142;-57
2021/06/25 02:43:02;;;;;;;32.03;12.33;;;;;;;16.80;87.02;94622.57;1613387;88;21449;-59
2021/06/25 02:45:31;;;;;;;30.43;11.55;;;;;;;16.78;87.08;94620.91;1608846;87;21038;-56
2021/06/25 02:47:59;;;;;;;31.85;12.20;;;;;;;16.78;87.11;94626.47;1620080;87;21491;-56
2021/06/25 02:50:26;;;;;;;28.67;11.18;;;;;;;16.76;87.26;94624.17;1618730;87;21071;-60
2021/06/25 02:52:53;;;;;;;34.90;12.00;;;;;;;16.78;87.38;94616.13;1588582;88;21253;-56
2021/06/25 02:55:20;;;;;;;29.32;11.22;;;;;;;16.84;87.21;94621.72;1619534;87;21114;-56
2021/06/25 02:57:47;;;;;;;35.13;12.30;;;;;;;16.90;87.07;94617.00;1622361;87;20994;-56
2021/06/25 03:00:16;;;;;;;35.45;11.18;;;;;;;16.93;87.09;94614.63;1621073;87;21066;-56
2021/06/25 03:02:43;;;;;;;29.75;11.80;;;;;;;16.99;86.90;94622.38;1616701;87;21021;-56
2021/06/25 03:05:13;;;;;;;31.97;10.75;;;;;;;17.01;86.81;94617.09;1628401;87;21435;-57
2021/06/25 03:07:40;;;;;;;30.77;11.38;;;;;;;17.04;86.66;94614.72;1622436;87;20975;-56
2021/06/25 03:10:08;;;;;;;31.27;12.55;;;;;;;17.00;86.31;94612.78;1621879;87;21033;-55
2021/06/25 03:12:35;;;;;;;37.53;14.45;;;;;;;16.96;86.27;94610.86;1622396;87;21149;-55
2021/06/25 03:15:05;;;;;;;39.60;14.28;;;;;;;16.92;86.51;94613.10;1618007;87;21029;-59
2021/06/25 03:17:32;;;;;;;39.23;12.37;;;;;;;16.89;86.43;94605.75;1621235;87;21045;-59
2021/06/25 03:20:01;;;;;;;29.42;11.85;;;;;;;16.85;86.58;94597.63;1632119;87;21112;-59
2021/06/25 03:22:27;;;;;;;30.77;12.80;;;;;;;16.85;86.91;94601.02;1625442;87;21198;-61
2021/06/25 03:24:54;;;;;;;31.40;11.85;;;;;;;16.90;87.09;94608.02;1639551;87;21591;-56
2021/06/25 03:27:21;;;;;;;37.03;12.35;;;;;;;17.01;87.17;94607.36;1620987;87;21054;-56
2021/06/25 03:29:49;;;;;;;31.42;12.25;;;;;;;17.12;86.94;94606.08;1624934;87;21087;-56
2021/06/25 03:32:16;;;;;;;40.00;12.63;;;;;;;17.20;86.61;94608.54;1631492;86;21021;-56
2021/06/25 03:34:44;;;;;;;36.23;12.28;;;;;;;17.28;86.37;94609.63;1640306;87;21136;-57
2021/06/25 03:37:12;;;;;;;30.68;11.97;;;;;;;17.36;86.22;94602.39;1596166;87;21934;-57
2021/06/25 03:39:39;;;;;;;27.80;12.60;;;;;;;17.46;85.79;94600.95;1586997;88;21062;-56
2021/06/25 03:42:07;;;;;;;37.15;11.55;;;;;;;17.53;85.75;94603.27;1594088;88;21126;-56
2021/06/25 03:44:34;;;;;;;21.52;9.95;;;;;;;17.62;85.35;94600.31;1566748;90;21116;-56
2021/06/25 03:47:01;;;;;;;25.10;12.10;;;;;;;17.65;85.02;94604.88;1624137;87;21234;-56
2021/06/25 03:49:28;;;;;;;31.02;11.85;;;;;;;17.67;84.91;94606.54;1615599;87;21160;-57
2021/06/25 03:51:55;;;;;;;22.95;12.00;;;;;;;17.70;84.79;94604.92;1624940;87;21068;-57
2021/06/25 03:54:21;;;;;;;34.53;13.30;;;;;;;17.75;84.55;94614.55;1615623;87;20986;-57
2021/06/25 03:56:48;;;;;;;34.58;14.30;;;;;;;17.76;84.60;94609.89;1602077;87;21039;-57
2021/06/25 03:59:17;;;;;;;38.58;15.35;;;;;;;17.76;84.57;94602.93;1624653;86;21087;-57
2021/06/25 04:01:44;;;;;;;35.92;16.02;;;;;;;17.78;84.58;94602.42;1626792;87;21123;-56
2021/06/25 04:04:11;;;;;;;37.05;15.20;;;;;;;17.80;84.53;94605.48;1622948;87;21094;-56
2021/06/25 04:06:38;;;;;;;46.40;14.20;;;;;;;17.82;84.74;94612.71;1620624;87;21116;-56
2021/06/25 04:09:06;;;;;;;39.03;15.90;;;;;;;17.90;84.87;94608.19;1624616;88;21529;-57
2021/06/25 04:11:33;;;;;;;37.60;16.65;;;;;;;17.99;84.71;94610.79;1623943;87;20992;-56
2021/06/25 04:14:00;;;;;;;37.38;16.35;;;;;;;18.07;84.46;94611.83;1614575;87;21965;-55
2021/06/25 04:16:28;;;;;;;33.42;16.97;;;;;;;18.14;84.34;94614.91;1612017;86;21086;-56
2021/06/25 04:18:55;;;;;;;33.08;14.58;;;;;;;18.21;83.93;94615.82;1618017;87;21110;-56
2021/06/25 04:21:22;;;;;;;29.72;12.60;;;;;;;18.26;83.52;94610.28;1620761;87;21089;-56
2021/06/25 04:23:50;;;;;;;36.30;13.18;;;;;;;18.31;82.69;94607.42;1617324;87;21094;-56
2021/06/25 04:26:16;;;;;;;21.23;11.10;;;;;;;18.39;82.22;94608.45;1615429;87;21152;-58
2021/06/25 04:28:44;;;;;;;64.75;14.90;;;;;;;18.49;81.37;94608.38;1613653;88;21104;-55
2021/06/25 04:31:11;;;;;;;35.25;14.73;;;;;;;18.56;81.13;94607.27;1617833;88;21598;-55
2021/06/25 04:33:39;;;;;;;41.33;15.15;;;;;;;18.68;81.05;94611.59;1620199;87;21027;-55
2021/06/25 04:36:08;;;;;;;73.62;15.93;;;;;;;18.81;80.89;94625.83;1596908;88;21506;-56
2021/06/25 04:38:35;;;;;;;37.65;14.58;;;;;;;18.90;80.58;94622.83;1624545;87;21175;-56
2021/06/25 04:41:03;;;;;;;34.78;13.38;;;;;;;19.02;80.31;94643.87;1621975;87;21231;-56
2021/06/25 04:43:30;;;;;;;22.58;12.15;;;;;;;19.08;79.72;94632.11;1612576;87;21092;-55
2021/06/25 04:45:59;;;;;;;38.38;13.32;;;;;;;19.11;79.38;94625.52;1623436;87;21124;-56
2021/06/25 04:48:26;;;;;;;31.15;12.15;;;;;;;19.14;79.83;94636.28;1620730;87;21520;-58
2021/06/25 04:50:53;;;;;;;24.35;10.75;;;;;;;19.22;80.17;94630.38;1630009;86;21096;-57
2021/06/25 04:53:20;;;;;;;30.57;10.32;;;;;;;19.30;79.73;94632.16;1622707;87;21028;-58
2021/06/25 04:55:47;;;;;;;51.92;28.17;;;;;;;19.42;79.35;94643.47;1630844;87;21611;-58
2021/06/25 04:58:16;;;;;;;67.62;20.08;;;;;;;19.55;78.92;94634.59;1603212;85;21196;-57
2021/06/25 05:00:44;;;;;;;29.18;16.45;;;;;;;19.66;78.44;94637.36;1634508;87;20974;-57
2021/06/25 05:03:11;;;;;;;27.02;13.78;;;;;;;19.74;77.95;94640.52;1637329;87;21163;-58
2021/06/25 05:05:38;;;;;;;28.90;13.95;;;;;;;19.83;77.82;94638.88;1629900;87;21488;-57
2021/06/25 05:08:06;;;;;;;37.78;14.07;;;;;;;19.92;77.35;94636.46;1613050;87;20970;-57
2021/06/25 05:10:33;;;;;;;31.02;12.65;;;;;;;20.00;76.87;94636.83;1614017;87;21095;-57
2021/06/25 05:13:01;;;;;;;38.70;11.05;;;;;;;20.08;76.07;94634.31;1614705;87;22500;-58
2021/06/25 05:15:27;;;;;;;31.60;12.60;;;;;;;20.15;75.53;94640.88;1624214;87;21173;-56
2021/06/25 05:17:54;;;;;;;21.80;11.30;;;;;;;20.23;75.50;94637.67;1619052;87;21118;-57
2021/06/25 05:20:21;;;;;;;26.65;12.45;;;;;;;20.33;75.16;94640.95;1616082;87;21563;-56
2021/06/25 05:22:49;;;;;;;23.35;10.65;;;;;;;20.37;74.24;94628.89;1614643;87;21003;-56
2021/06/25 05:25:16;;;;;;;25.48;10.20;;;;;;;20.39;73.82;94643.11;1618564;87;21191;-57
2021/06/25 05:27:43;;;;;;;30.75;10.58;;;;;;;20.40;73.63;94641.19;1618938;87;21451;-57
2021/06/25 05:30:11;;;;;;;25.48;10.78;;;;;;;20.45;73.43;94650.20;1622116;87;20983;-57
2021/06/25 05:32:39;;;;;;;49.30;12.00;;;;;;;20.49;73.49;94648.52;1630307;87;21066;-58
2021/06/25 05:35:07;;;;;;;24.65;10.88;;;;;;;20.52;73.41;94645.47;1635862;86;21115;-57
2021/06/25 05:37:34;;;;;;;40.67;14.33;;;;;;;20.60;73.29;94645.05;1632250;87;21070;-58
2021/06/25 05:40:00;;;;;;;30.72;12.28;;;;;;;20.73;72.97;94647.30;1622650;87;21041;-58
2021/06/25 05:42:27;;;;;;;30.10;9.38;;;;;;;20.87;72.89;94647.00;1630245;87;21523;-58
2021/06/25 05:44:54;;;;;;;39.30;9.68;;;;;;;21.03;72.37;94648.19;1622937;87;21100;-57
2021/06/25 05:47:21;;;;;;;29.70;9.25;;;;;;;21.18;71.27;94647.21;1619939;87;20990;-57
2021/06/25 05:49:48;;;;;;;29.35;10.68;;;;;;;21.32;71.33;94641.91;1627828;87;21006;-59
2021/06/25 05:52:15;;;;;;;25.68;9.33;;;;;;;21.41;71.27;94647.17;1624499;87;21156;-59
2021/06/25 05:54:42;;;;;;;17.87;9.58;;;;;;;21.46;70.68;94638.00;1632215;87;21118;-64
2021/06/25 05:57:09;;;;;;;24.80;8.90;;;;;;;21.52;70.26;94635.91;1604963;87;21059;-58
2021/06/25 05:59:35;;;;;;;29.45;9.78;;;;;;;21.63;70.05;94630.27;1626923;87;21142;-61
2021/06/25 06:02:02;;;;;;;22.00;9.38;;;;;;;21.76;70.02;94627.59;1622142;87;21130;-63
2021/06/25 06:04:30;;;;;;;21.82;9.38;;;;;;;21.91;69.79;94618.16;1606038;87;21154;-60
2021/06/25 06:06:58;;;;;;;26.35;8.70;;;;;;;22.04;69.28;94617.02;1624334;86;21093;-62
2021/06/25 06:09:25;;;;;;;24.75;9.03;;;;;;;22.19;69.38;94618.78;1617194;86;21093;-59
2021/06/25 06:11:52;;;;;;;22.80;8.65;;;;;;;22.37;68.97;94618.08;1617636;86;21093;-60
2021/06/25 06:14:19;;;;;;;26.20;10.03;;;;;;;22.56;68.20;94614.70;1612625;86;21084;-62
2021/06/25 06:16:46;;;;;;;26.80;8.80;;;;;;;22.73;67.70;94611.67;1616739;87;21168;-57
2021/06/25 06:19:16;;;;;;;23.77;8.23;;;;;;;22.87;67.44;94609.82;1619858;86;21112;-59
2021/06/25 06:32:57;;;;;;;18.65;7.90;;;;;;;23.63;64.16;94611.43;1614293;86;21219;-61
2021/06/25 06:35:17;;;;;;;21.23;6.55;;;;;;;23.74;63.79;94609.83;1622975;86;21521;-62
2021/06/25 06:37:49;;;;;;;15.65;6.67;;;;;;;23.85;64.08;94599.84;1590189;87;40241;-59
2021/06/25 06:40:18;;;;;;;23.32;7.22;;;;;;;23.97;63.62;94608.17;1615240;87;21069;-63
2021/06/25 06:42:44;;;;;;;23.62;7.97;;;;;;;24.08;63.50;94603.78;1614761;87;21306;-64
2021/06/25 06:45:14;;;;;;;31.12;9.90;;;;;;;24.21;63.43;94603.14;1619649;87;21520;-68
2021/06/25 06:47:41;;;;;;;25.85;8.95;;;;;;;24.34;63.30;94612.23;1608929;86;21077;-64
2021/06/25 06:50:09;;;;;;;16.48;8.28;;;;;;;24.49;63.49;94611.05;1616679;86;21090;-62
2021/06/25 06:52:36;;;;;;;20.65;7.75;;;;;;;24.60;63.16;94603.84;1615657;86;21057;-62
2021/06/25 06:55:04;;;;;;;18.48;8.33;;;;;;;24.73;63.37;94594.73;1620238;87;21095;-67
2021/06/25 06:57:31;;;;;;;23.10;10.25;;;;;;;24.86;63.70;94586.91;1619984;86;21153;-68
2021/06/25 06:59:57;;;;;;;31.55;8.78;;;;;;;24.96;63.91;94586.58;1625472;86;21058;-69
2021/06/25 07:02:25;;;;;;;17.52;8.53;;;;;;;25.08;64.10;94587.86;1617719;86;21053;-64
2021/06/25 07:04:52;;;;;;;16.30;8.90;;;;;;;25.22;65.19;94594.34;1604748;87;21092;-64
2021/06/25 07:07:20;;;;;;;20.72;8.63;;;;;;;25.35;64.81;94592.90;1625270;87;21807;-65
2021/06/25 07:09:47;;;;;;;18.65;8.43;;;;;;;25.49;64.61;94590.78;1609882;87;21320;-64
2021/06/25 07:12:14;;;;;;;14.55;7.97;;;;;;;25.63;64.25;94590.84;1608592;87;21167;-66
2021/06/25 07:14:43;;;;;;;20.65;8.85;;;;;;;25.70;64.62;94583.09;1619361;87;21269;-64
2021/06/25 07:17:09;;;;;;;20.92;8.43;;;;;;;25.80;64.89;94586.29;1622842;86;20987;-63
2021/06/25 07:19:36;;;;;;;21.15;9.20;;;;;;;25.85;64.64;94582.59;1618312;87;21330;-62
2021/06/25 07:22:04;;;;;;;21.45;9.20;;;;;;;25.93;64.49;94578.54;1594241;87;20974;-63
2021/06/25 07:24:31;;;;;;;14.98;7.42;;;;;;;26.07;64.38;94581.38;1638541;86;21029;-64
2021/06/25 07:26:58;;;;;;;19.87;8.78;;;;;;;26.21;63.15;94582.81;1627531;86;22164;-62
2021/06/25 07:29:25;;;;;;;21.00;9.70;;;;;;;26.29;63.13;94581.46;1617881;86;21131;-63
2021/06/25 07:31:51;;;;;;;25.68;9.35;;;;;;;26.37;63.49;94575.97;1623501;86;21130;-64
2021/06/25 07:34:18;;;;;;;17.10;8.08;;;;;;;26.50;63.11;94577.29;1622172;86;21102;-63
2021/06/25 07:36:47;;;;;;;25.23;8.98;;;;;;;26.63;62.89;94578.59;1625638;87;21077;-64
2021/06/25 07:39:14;;;;;;;23.20;9.40;;;;;;;26.71;61.55;94570.91;1626562;87;21061;-63
2021/06/25 07:41:41;;;;;;;12.98;7.85;;;;;;;26.76;61.67;94578.48;1634813;85;21532;-62
2021/06/25 07:44:08;;;;;;;17.05;8.15;;;;;;;26.83;61.62;94574.94;1600436;86;21146;-68
2021/06/25 07:46:34;;;;;;;40.63;9.80;;;;;;;26.92;61.36;94573.02;1633908;86;21049;-63
2021/06/25 07:49:01;;;;;;;22.40;8.50;;;;;;;27.00;61.45;94563.91;1638957;86;21002;-63
2021/06/25 07:51:28;;;;;;;20.70;8.40;;;;;;;27.10;60.60;94569.17;1627756;85;21034;-62
2021/06/25 07:53:56;;;;;;;26.23;8.50;;;;;;;27.17;60.22;94563.42;1627575;86;21679;-63
2021/06/25 07:56:23;;;;;;;29.05;9.38;;;;;;;27.20;59.51;94562.33;1611174;86;21205;-62
2021/06/25 07:58:49;;;;;;;20.35;8.20;;;;;;;27.19;60.01;94563.64;1627107;86;22258;-62
2021/06/25 08:01:16;;;;;;;22.22;7.95;;;;;;;27.24;60.46;94564.86;1613372;87;21209;-61
2021/06/25 08:03:43;;;;;;;21.30;8.78;;;;;;;27.34;59.79;94567.91;1620799;85;21199;-63
2021/06/25 08:06:11;;;;;;;24.45;8.95;;;;;;;27.39;59.45;94564.91;1626755;86;21024;-61
2021/06/25 08:08:38;;;;;;;21.95;9.10;;;;;;;27.40;59.12;94563.59;1616622;86;21203;-62
2021/06/25 08:11:06;;;;;;;26.45;9.00;;;;;;;27.39;59.01;94554.28;1618917;87;21253;-56
2021/06/25 08:13:33;;;;;;;23.57;8.85;;;;;;;27.40;59.25;94547.31;1636821;86;21119;-62
2021/06/25 08:16:02;;;;;;;24.92;8.45;;;;;;;27.49;59.34;94546.10;1627641;86;21136;-57
2021/06/25 08:18:29;;;;;;;31.87;9.08;;;;;;;27.60;59.54;94546.40;1632489;87;22382;-60
2021/06/25 08:20:56;;;;;;;22.37;9.03;;;;;;;27.70;58.90;94543.87;1629129;86;21103;-58
2021/06/25 08:23:22;;;;;;;26.80;9.65;;;;;;;27.79;58.69;94556.05;1595771;87;21074;-59
2021/06/25 08:25:50;;;;;;;27.45;9.48;;;;;;;27.84;58.17;94548.06;1627370;86;21034;-57
2021/06/25 08:28:18;;;;;;;26.15;9.70;;;;;;;27.89;58.67;94551.36;1644618;86;21135;-58
2021/06/25 08:30:45;;;;;;;24.77;8.38;;;;;;;27.96;58.20;94542.11;1634072;86;21706;-66
2021/06/25 08:33:12;;;;;;;24.05;9.18;;;;;;;28.02;58.46;94542.69;1621791;86;21188;-65
2021/06/25 08:35:38;;;;;;;29.87;9.95;;;;;;;28.07;58.56;94538.91;1604612;87;21257;-57
2021/06/25 08:38:07;;;;;;;24.35;10.05;;;;;;;28.18;58.34;94537.86;1620842;87;21104;-58
2021/06/25 08:40:33;;;;;;;26.00;9.90;;;;;;;28.29;57.20;94532.47;1619866;87;21431;-59
2021/06/25 08:43:01;;;;;;;35.38;9.58;;;;;;;28.38;57.18;94530.52;1628000;85;21759;-60
2021/06/25 08:45:29;;;;;;;21.33;9.43;;;;;;;28.48;56.77;94530.77;1638153;86;21154;-63
2021/06/25 08:47:58;;;;;;;25.50;9.15;;;;;;;28.57;56.53;94527.34;1646210;86;22158;-64
2021/06/25 08:50:24;;;;;;;28.55;9.30;;;;;;;28.68;57.17;94534.67;1619199;86;21115;-62
2021/06/25 08:52:53;;;;;;;22.05;9.48;;;;;;;28.80;57.17;94525.19;1617207;85;21704;-65
2021/06/25 08:55:21;;;;;;;27.45;8.20;;;;;;;28.94;56.10;94528.59;1639647;85;21082;-65
2021/06/25 08:57:49;;;;;;;19.82;9.33;;;;;;;29.07;56.17;94531.16;1618167;87;21152;-64
2021/06/25 09:00:18;;;;;;;33.58;9.78;;;;;;;29.19;55.76;94527.34;1627612;86;21307;-66
2021/06/25 09:02:46;;;;;;;23.35;8.23;;;;;;;29.30;56.25;94523.31;1606973;87;21067;-66
2021/06/25 09:05:26;;;;;;;21.75;8.40;;;;;;;29.45;55.16;94520.37;1625973;86;21547;-65
2021/06/25 09:07:54;;;;;;;21.17;8.98;;;;;;;29.64;55.16;94519.27;1629176;86;21151;-62
2021/06/25 09:10:39;;;;;;;17.40;8.40;;;;;;;29.88;54.60;94514.33;1627089;85;21151;-62
2021/06/25 09:13:12;;;;;;;23.98;9.45;;;;;;;30.05;54.95;94520.75;1620448;87;21125;-60
2021/06/25 09:15:42;;;;;;;15.48;9.03;;;;;;;30.17;53.62;94518.95;1636881;86;21471;-57
2021/06/25 09:18:12;;;;;;;22.52;8.45;;;;;;;30.22;54.48;94511.62;1624636;86;21072;-58
2021/06/25 09:20:45;;;;;;;20.20;9.75;;;;;;;30.33;54.37;94509.70;1635633;86;21125;-57
2021/06/25 09:23:27;;;;;;;20.12;9.10;;;;;;;30.39;54.72;94505.20;1660639;85;21154;-62
2021/06/25 09:26:09;;;;;;;23.95;8.98;;;;;;;30.44;54.37;94503.53;1635603;86;21180;-59
2021/06/25 09:28:42;;;;;;;19.37;8.08;;;;;;;30.54;54.23;94495.84;1638095;85;21081;-57
2021/06/25 09:31:18;;;;;;;13.93;8.20;;;;;;;30.62;53.79;94492.30;1618641;87;21163;-57
2021/06/25 09:33:51;;;;;;;21.73;9.10;;;;;;;30.69;52.69;94490.03;1631195;86;21603;-58
2021/06/25 09:36:33;;;;;;;16.85;8.38;;;;;;;30.75;52.70;94491.97;1637261;85;21334;-57
2021/06/25 09:39:08;;;;;;;23.47;8.70;;;;;;;30.76;52.35;94487.78;1641221;85;21558;-59
2021/06/25 09:41:40;;;;;;;24.67;9.00;;;;;;;30.71;51.64;94483.09;1622948;87;21073;-60
2021/06/25 09:44:10;;;;;;;20.12;8.30;;;;;;;30.75;52.38;94479.19;1614928;87;21054;-59
2021/06/25 09:46:42;;;;;;;20.25;7.97;;;;;;;30.81;52.87;94473.22;1626351;86;21082;-59
2021/06/25 09:49:14;;;;;;;14.68;6.70;;;;;;;30.91;52.44;94467.72;1623606;87;21525;-60
2021/06/25 09:51:56;;;;;;;23.87;8.60;;;;;;;31.02;52.84;94465.76;1623397;87;21098;-60
2021/06/25 09:54:23;;;;;;;30.95;9.95;;;;;;;31.11;51.93;94470.80;1624152;86;21056;-58
2021/06/25 09:57:04;;;;;;;17.60;8.70;;;;;;;31.24;51.37;94466.14;1638140;86;21100;-57
2021/06/25 09:59:45;;;;;;;16.75;7.35;;;;;;;31.38;51.18;94463.70;1627320;85;21566;-56
2021/06/25 10:02:31;;;;;;;19.27;7.87;;;;;;;31.45;50.07;94452.87;1614990;87;21132;-58
2021/06/25 10:05:14;;;;;;;16.67;7.50;;;;;;;31.50;50.02;94449.75;1628784;86;21605;-57
2021/06/25 10:07:41;;;;;;;17.23;7.17;;;;;;;31.48;49.93;94445.33;1604341;86;21531;-58
2021/06/25 10:10:10;;;;;;;21.77;8.00;;;;;;;31.55;51.08;94434.50;1643903;85;21124;-63
2021/06/25 10:12:39;;;;;;;14.18;7.03;;;;;;;31.64;50.50;94436.62;1617814;87;21123;-57
2021/06/25 10:15:08;;;;;;;17.42;8.08;;;;;;;31.74;50.90;94431.02;1587564;87;21312;-56
2021/06/25 10:17:36;;;;;;;28.30;8.98;;;;;;;31.85;51.87;94429.78;1613212;86;20953;-57
2021/06/25 10:20:12;;;;;;;21.12;8.43;;;;;;;31.89;50.64;94425.81;1621807;87;21037;-58
2021/06/25 10:22:41;;;;;;;17.20;7.97;;;;;;;31.89;50.01;94430.09;1626872;87;21047;-62
2021/06/25 10:25:10;;;;;;;19.70;8.58;;;;;;;31.75;49.66;94432.52;1622963;87;21079;-58
2021/06/25 10:27:38;;;;;;;17.32;9.75;;;;;;;31.53;50.18;94427.23;1618545;87;21180;-57
2021/06/25 10:30:06;;;;;;;23.40;9.40;;;;;;;31.29;50.68;94425.34;1626299;87;21134;-57
2021/06/25 10:32:38;;;;;;;19.25;9.10;;;;;;;30.99;51.00;94420.70;1635744;86;21153;-57
2021/06/25 10:35:11;;;;;;;21.73;9.33;;;;;;;30.67;51.75;94411.74;1637210;86;21117;-61
2021/06/25 10:37:46;;;;;;;20.65;9.45;;;;;;;30.44;52.85;94405.56;1621709;87;21579;-58
2021/06/25 10:40:25;;;;;;;24.02;9.05;;;;;;;30.26;53.18;94396.20;1628037;87;21141;-57
2021/06/25 10:42:54;;;;;;;24.02;10.20;;;;;;;30.12;53.76;94386.55;1628738;86;21022;-58
2021/06/25 10:45:41;;;;;;;30.97;11.12;;;;;;;30.02;54.41;94386.45;1627340;87;21117;-56
2021/06/25 10:48:08;;;;;;;29.65;11.40;;;;;;;29.90;54.62;94374.05;1588726;88;21109;-57
2021/06/25 10:50:36;;;;;;;21.12;10.72;;;;;;;29.79;55.67;94364.52;1621931;87;22559;-58
2021/06/25 10:53:16;;;;;;;23.52;12.23;;;;;;;29.69;56.32;94363.01;1618204;87;21212;-57
2021/06/25 10:55:58;;;;;;;23.92;11.15;;;;;;;29.57;56.67;94347.06;1609710;88;21180;-59
2021/06/25 10:58:26;;;;;;;19.98;11.97;;;;;;;29.41;57.13;94337.16;1603112;86;21249;-57
2021/06/25 11:00:56;;;;;;;30.50;12.25;;;;;;;29.26;57.75;94350.80;1606614;87;21538;-57
2021/06/25 11:03:42;;;;;;;26.73;13.32;;;;;;;29.08;57.93;94357.73;1617886;86;21101;-55
2021/06/25 11:06:38;;;;;;;34.20;16.42;;;;;;;28.93;58.45;94357.10;1603525;87;21450;-58
2021/06/25 11:09:06;;;;;;;30.55;16.40;;;;;;;28.77;58.86;94350.00;1621349;86;21585;-57
2021/06/25 11:11:33;;;;;;;38.88;20.25;;;;;;;28.57;60.02;94327.00;1603080;87;21093;-59
2021/06/25 11:14:01;;;;;;;45.28;20.90;;;;;;;28.41;61.16;94313.57;1593167;88;21485;-57
2021/06/25 11:16:28;;;;;;;52.38;25.05;;;;;;;28.24;61.99;94312.02;1591950;88;21200;-59
2021/06/25 11:18:59;;;;;;;54.93;25.40;;;;;;;28.07;62.75;94325.31;1619100;87;21226;-58
2021/06/25 11:21:43;;;;;;;47.78;20.68;;;;;;;27.87;63.06;94330.57;1624235;87;21385;-57
2021/06/25 11:24:10;;;;;;;61.18;27.30;;;;;;;27.73;63.50;94325.05;1628246;86;21071;-56
2021/06/25 11:26:55;;;;;;;56.05;26.57;;;;;;;27.59;64.17;94322.30;1626403;86;21110;-58
2021/06/25 11:29:23;;;;;;;133.43;50.10;;;;;;;27.45;64.79;94352.13;1616550;87;21110;-61
2021/06/25 11:32:09;;;;;;;87.15;35.63;;;;;;;27.30;66.21;94388.86;1590465;86;21173;-58
2021/06/25 11:34:36;;;;;;;151.20;61.35;;;;;;;27.13;67.79;94427.45;1598103;87;21487;-57
2021/06/25 11:37:04;;;;;;;86.20;37.33;;;;;;;26.93;69.23;94475.69;1618262;86;21105;-60
2021/06/25 11:39:33;;;;;;;58.10;26.12;;;;;;;26.76;70.90;94485.97;1592987;88;21153;-59